sensor_id;sensor_type;location;lat;lon;timestamp;P1;durP1;ratioP1;P2;durP2;ratioP2
37131;SDS011;23035;50.032;21.978;2023-06-22T00:02:56;13.63;;;9.70;;
37131;SDS011;23035;50.032;21.978;2023-06-22T00:08:02;15.68;;;10.27;;
37131;SDS011;23035;50.032;21.978;2023-06-22T00:13:08;15.38;;;10.88;;
37131;SDS011;23035;50.032;21.978;2023-06-22T00:18:13;14.80;;;9.68;;
37131;SDS011;23035;50.032;21.978;2023-06-22T00:23:18;13.70;;;9.60;;
37131;SDS011;23035;50.032;21.978;2023-06-22T00:28:21;12.63;;;9.57;;
37131;SDS011;23035;50.032;21.978;2023-06-22T00:33:27;13.35;;;9.85;;
37131;SDS011;23035;50.032;21.978;2023-06-22T00:38:31;14.80;;;9.95;;
37131;SDS011;23035;50.032;21.978;2023-06-22T00:43:36;13.38;;;9.40;;
37131;SDS011;23035;50.032;21.978;2023-06-22T00:48:41;12.35;;;9.07;;
37131;SDS011;23035;50.032;21.978;2023-06-22T00:53:46;15.63;;;9.40;;
37131;SDS011;23035;50.032;21.978;2023-06-22T00:58:51;14.55;;;10.00;;
37131;SDS011;23035;50.032;21.978;2023-06-22T01:03:57;14.20;;;10.20;;
37131;SDS011;23035;50.032;21.978;2023-06-22T01:09:02;14.00;;;10.13;;
37131;SDS011;23035;50.032;21.978;2023-06-22T01:14:15;13.77;;;10.07;;
37131;SDS011;23035;50.032;21.978;2023-06-22T01:19:34;12.50;;;9.27;;
37131;SDS011;23035;50.032;21.978;2023-06-22T01:24:42;11.55;;;9.30;;
37131;SDS011;23035;50.032;21.978;2023-06-22T01:29:56;18.55;;;11.10;;
37131;SDS011;23035;50.032;21.978;2023-06-22T01:35:04;12.32;;;9.65;;
37131;SDS011;23035;50.032;21.978;2023-06-22T01:40:11;12.90;;;9.95;;
37131;SDS011;23035;50.032;21.978;2023-06-22T01:45:18;12.05;;;9.93;;
37131;SDS011;23035;50.032;21.978;2023-06-22T01:50:22;12.18;;;9.88;;
37131;SDS011;23035;50.032;21.978;2023-06-22T01:55:26;14.43;;;10.57;;
37131;SDS011;23035;50.032;21.978;2023-06-22T02:00:32;15.55;;;10.43;;
37131;SDS011;23035;50.032;21.978;2023-06-22T02:05:43;15.02;;;10.77;;
37131;SDS011;23035;50.032;21.978;2023-06-22T02:10:52;17.83;;;11.48;;
37131;SDS011;23035;50.032;21.978;2023-06-22T02:15:59;16.42;;;12.68;;
37131;SDS011;23035;50.032;21.978;2023-06-22T02:21:04;18.40;;;11.55;;
37131;SDS011;23035;50.032;21.978;2023-06-22T02:26:08;15.63;;;10.82;;
37131;SDS011;23035;50.032;21.978;2023-06-22T02:31:13;16.00;;;10.60;;
37131;SDS011;23035;50.032;21.978;2023-06-22T02:41:24;14.65;;;9.68;;
37131;SDS011;23035;50.032;21.978;2023-06-22T02:46:32;14.80;;;10.63;;
37131;SDS011;23035;50.032;21.978;2023-06-22T02:56:43;12.18;;;9.77;;
37131;SDS011;23035;50.032;21.978;2023-06-22T03:01:48;14.60;;;11.13;;
37131;SDS011;23035;50.032;21.978;2023-06-22T03:07:00;17.17;;;10.73;;
37131;SDS011;23035;50.032;21.978;2023-06-22T03:12:07;17.25;;;11.75;;
37131;SDS011;23035;50.032;21.978;2023-06-22T03:17:21;15.00;;;10.25;;
37131;SDS011;23035;50.032;21.978;2023-06-22T03:22:25;18.30;;;10.73;;
37131;SDS011;23035;50.032;21.978;2023-06-22T03:27:29;14.50;;;10.20;;
37131;SDS011;23035;50.032;21.978;2023-06-22T03:32:35;14.90;;;10.98;;
37131;SDS011;23035;50.032;21.978;2023-06-22T03:37:41;12.93;;;10.45;;
37131;SDS011;23035;50.032;21.978;2023-06-22T03:42:45;17.70;;;13.00;;
37131;SDS011;23035;50.032;21.978;2023-06-22T03:47:50;20.40;;;13.23;;
37131;SDS011;23035;50.032;21.978;2023-06-22T03:52:55;16.38;;;12.23;;
37131;SDS011;23035;50.032;21.978;2023-06-22T03:57:59;16.75;;;11.82;;
37131;SDS011;23035;50.032;21.978;2023-06-22T04:03:09;16.20;;;11.80;;
37131;SDS011;23035;50.032;21.978;2023-06-22T04:08:14;16.48;;;10.93;;
37131;SDS011;23035;50.032;21.978;2023-06-22T04:13:19;19.67;;;10.67;;
37131;SDS011;23035;50.032;21.978;2023-06-22T04:18:24;14.23;;;10.30;;
37131;SDS011;23035;50.032;21.978;2023-06-22T04:23:28;17.65;;;11.65;;
37131;SDS011;23035;50.032;21.978;2023-06-22T04:28:32;14.70;;;10.73;;
37131;SDS011;23035;50.032;21.978;2023-06-22T04:33:39;17.52;;;11.82;;
37131;SDS011;23035;50.032;21.978;2023-06-22T04:38:47;14.77;;;10.13;;
37131;SDS011;23035;50.032;21.978;2023-06-22T04:43:55;15.40;;;10.45;;
37131;SDS011;23035;50.032;21.978;2023-06-22T04:49:06;17.77;;;10.38;;
37131;SDS011;23035;50.032;21.978;2023-06-22T04:54:14;16.05;;;10.27;;
37131;SDS011;23035;50.032;21.978;2023-06-22T04:59:21;18.92;;;10.65;;
37131;SDS011;23035;50.032;21.978;2023-06-22T05:04:35;16.58;;;10.43;;
37131;SDS011;23035;50.032;21.978;2023-06-22T05:09:44;16.10;;;12.27;;
37131;SDS011;23035;50.032;21.978;2023-06-22T05:14:50;16.55;;;11.13;;
37131;SDS011;23035;50.032;21.978;2023-06-22T05:19:56;17.25;;;12.52;;
37131;SDS011;23035;50.032;21.978;2023-06-22T05:25:00;20.88;;;12.60;;
37131;SDS011;23035;50.032;21.978;2023-06-22T05:30:04;20.55;;;14.70;;
37131;SDS011;23035;50.032;21.978;2023-06-22T05:35:11;20.10;;;13.27;;
37131;SDS011;23035;50.032;21.978;2023-06-22T05:45:19;16.23;;;12.60;;
37131;SDS011;23035;50.032;21.978;2023-06-22T05:50:26;14.65;;;12.35;;
37131;SDS011;23035;50.032;21.978;2023-06-22T05:55:30;20.38;;;14.57;;
37131;SDS011;23035;50.032;21.978;2023-06-22T06:00:37;22.20;;;13.88;;
37131;SDS011;23035;50.032;21.978;2023-06-22T06:05:43;17.83;;;12.88;;
37131;SDS011;23035;50.032;21.978;2023-06-22T06:10:48;18.40;;;13.75;;
37131;SDS011;23035;50.032;21.978;2023-06-22T06:15:52;23.60;;;13.80;;
37131;SDS011;23035;50.032;21.978;2023-06-22T06:21:00;20.20;;;12.65;;
37131;SDS011;23035;50.032;21.978;2023-06-22T06:26:04;19.05;;;13.50;;
37131;SDS011;23035;50.032;21.978;2023-06-22T06:31:09;22.15;;;12.88;;
37131;SDS011;23035;50.032;21.978;2023-06-22T06:36:16;22.10;;;12.88;;
37131;SDS011;23035;50.032;21.978;2023-06-22T06:41:20;20.55;;;13.18;;
37131;SDS011;23035;50.032;21.978;2023-06-22T06:46:25;17.25;;;12.65;;
37131;SDS011;23035;50.032;21.978;2023-06-22T06:51:30;17.35;;;12.32;;
37131;SDS011;23035;50.032;21.978;2023-06-22T06:56:34;18.88;;;11.63;;
37131;SDS011;23035;50.032;21.978;2023-06-22T07:01:38;14.30;;;11.27;;
37131;SDS011;23035;50.032;21.978;2023-06-22T07:06:44;17.63;;;11.63;;
37131;SDS011;23035;50.032;21.978;2023-06-22T07:11:48;18.02;;;11.15;;
37131;SDS011;23035;50.032;21.978;2023-06-22T07:16:55;15.63;;;11.10;;
37131;SDS011;23035;50.032;21.978;2023-06-22T07:22:00;15.27;;;11.27;;
37131;SDS011;23035;50.032;21.978;2023-06-22T07:27:04;16.83;;;9.57;;
37131;SDS011;23035;50.032;21.978;2023-06-22T07:32:09;10.77;;;8.70;;
37131;SDS011;23035;50.032;21.978;2023-06-22T07:37:14;12.50;;;10.23;;
37131;SDS011;23035;50.032;21.978;2023-06-22T07:42:18;16.60;;;10.25;;
37131;SDS011;23035;50.032;21.978;2023-06-22T07:47:22;12.57;;;9.17;;
37131;SDS011;23035;50.032;21.978;2023-06-22T07:52:30;9.20;;;7.53;;
37131;SDS011;23035;50.032;21.978;2023-06-22T07:57:35;16.50;;;8.93;;
37131;SDS011;23035;50.032;21.978;2023-06-22T08:02:39;11.87;;;8.67;;
37131;SDS011;23035;50.032;21.978;2023-06-22T08:07:46;13.15;;;9.25;;
37131;SDS011;23035;50.032;21.978;2023-06-22T08:12:50;14.10;;;8.48;;
37131;SDS011;23035;50.032;21.978;2023-06-22T08:28:08;10.07;;;8.35;;
37131;SDS011;23035;50.032;21.978;2023-06-22T08:33:12;13.13;;;8.68;;
37131;SDS011;23035;50.032;21.978;2023-06-22T08:38:30;12.63;;;8.68;;
37131;SDS011;23035;50.032;21.978;2023-06-22T08:43:34;15.90;;;9.90;;
37131;SDS011;23035;50.032;21.978;2023-06-22T08:48:38;17.43;;;10.53;;
37131;SDS011;23035;50.032;21.978;2023-06-22T08:53:43;12.60;;;9.93;;
37131;SDS011;23035;50.032;21.978;2023-06-22T08:58:48;13.70;;;10.77;;
37131;SDS011;23035;50.032;21.978;2023-06-22T09:03:52;11.85;;;10.52;;
37131;SDS011;23035;50.032;21.978;2023-06-22T09:09:01;13.02;;;9.50;;
37131;SDS011;23035;50.032;21.978;2023-06-22T09:14:05;13.18;;;9.98;;
37131;SDS011;23035;50.032;21.978;2023-06-22T09:19:10;15.20;;;10.98;;
37131;SDS011;23035;50.032;21.978;2023-06-22T09:24:16;12.68;;;9.35;;
37131;SDS011;23035;50.032;21.978;2023-06-22T09:29:21;14.40;;;10.35;;
37131;SDS011;23035;50.032;21.978;2023-06-22T09:34:25;10.63;;;9.40;;
37131;SDS011;23035;50.032;21.978;2023-06-22T09:39:31;14.70;;;9.65;;
37131;SDS011;23035;50.032;21.978;2023-06-22T09:44:35;15.05;;;10.23;;
37131;SDS011;23035;50.032;21.978;2023-06-22T09:49:39;15.55;;;9.73;;
37131;SDS011;23035;50.032;21.978;2023-06-22T09:54:51;14.07;;;9.40;;
37131;SDS011;23035;50.032;21.978;2023-06-22T09:59:55;15.60;;;10.43;;
37131;SDS011;23035;50.032;21.978;2023-06-22T10:04:59;15.07;;;9.60;;
37131;SDS011;23035;50.032;21.978;2023-06-22T10:10:05;12.68;;;9.98;;
37131;SDS011;23035;50.032;21.978;2023-06-22T10:15:10;13.23;;;9.90;;
37131;SDS011;23035;50.032;21.978;2023-06-22T10:20:15;13.00;;;11.70;;
37131;SDS011;23035;50.032;21.978;2023-06-22T10:25:22;12.57;;;9.52;;
37131;SDS011;23035;50.032;21.978;2023-06-22T10:30:26;13.52;;;9.52;;
37131;SDS011;23035;50.032;21.978;2023-06-22T10:35:31;14.82;;;10.73;;
37131;SDS011;23035;50.032;21.978;2023-06-22T10:40:36;16.70;;;12.07;;
37131;SDS011;23035;50.032;21.978;2023-06-22T10:45:41;14.98;;;11.48;;
37131;SDS011;23035;50.032;21.978;2023-06-22T10:50:46;13.35;;;11.07;;
37131;SDS011;23035;50.032;21.978;2023-06-22T10:55:53;14.85;;;11.88;;
37131;SDS011;23035;50.032;21.978;2023-06-22T11:00:59;13.88;;;11.65;;
37131;SDS011;23035;50.032;21.978;2023-06-22T11:06:05;14.30;;;11.13;;
37131;SDS011;23035;50.032;21.978;2023-06-22T11:11:10;15.60;;;11.90;;
37131;SDS011;23035;50.032;21.978;2023-06-22T11:16:29;16.42;;;11.30;;
37131;SDS011;23035;50.032;21.978;2023-06-22T11:21:33;11.23;;;10.02;;
37131;SDS011;23035;50.032;21.978;2023-06-22T11:26:38;12.55;;;9.18;;
37131;SDS011;23035;50.032;21.978;2023-06-22T11:31:44;12.45;;;10.10;;
37131;SDS011;23035;50.032;21.978;2023-06-22T11:36:48;12.50;;;9.32;;
37131;SDS011;23035;50.032;21.978;2023-06-22T11:41:53;11.18;;;9.73;;
37131;SDS011;23035;50.032;21.978;2023-06-22T11:47:01;10.43;;;9.10;;
37131;SDS011;23035;50.032;21.978;2023-06-22T11:52:06;10.27;;;9.15;;
37131;SDS011;23035;50.032;21.978;2023-06-22T11:57:12;12.35;;;9.90;;
37131;SDS011;23035;50.032;21.978;2023-06-22T12:02:16;13.40;;;9.43;;
37131;SDS011;23035;50.032;21.978;2023-06-22T12:07:20;15.68;;;10.20;;
37131;SDS011;23035;50.032;21.978;2023-06-22T12:12:27;12.20;;;9.35;;
37131;SDS011;23035;50.032;21.978;2023-06-22T12:17:31;10.55;;;8.93;;
37131;SDS011;23035;50.032;21.978;2023-06-22T12:22:35;11.07;;;9.43;;
37131;SDS011;23035;50.032;21.978;2023-06-22T12:27:42;15.35;;;9.63;;
37131;SDS011;23035;50.032;21.978;2023-06-22T12:32:48;18.05;;;11.05;;
37131;SDS011;23035;50.032;21.978;2023-06-22T12:37:56;14.55;;;10.10;;
37131;SDS011;23035;50.032;21.978;2023-06-22T12:43:01;25.48;;;22.85;;
37131;SDS011;23035;50.032;21.978;2023-06-22T12:48:06;31.83;;;26.63;;
37131;SDS011;23035;50.032;21.978;2023-06-22T12:53:10;28.08;;;25.25;;
37131;SDS011;23035;50.032;21.978;2023-06-22T12:58:19;23.90;;;21.52;;
37131;SDS011;23035;50.032;21.978;2023-06-22T13:03:23;21.35;;;18.48;;
37131;SDS011;23035;50.032;21.978;2023-06-22T13:08:29;19.02;;;17.05;;
37131;SDS011;23035;50.032;21.978;2023-06-22T13:13:54;16.00;;;14.40;;
37131;SDS011;23035;50.032;21.978;2023-06-22T13:18:58;18.80;;;16.52;;
37131;SDS011;23035;50.032;21.978;2023-06-22T13:24:03;14.93;;;12.45;;
37131;SDS011;23035;50.032;21.978;2023-06-22T13:29:10;11.70;;;10.65;;
37131;SDS011;23035;50.032;21.978;2023-06-22T13:34:14;13.27;;;11.82;;
37131;SDS011;23035;50.032;21.978;2023-06-22T13:39:20;18.02;;;14.88;;
37131;SDS011;23035;50.032;21.978;2023-06-22T13:44:25;10.65;;;7.85;;
37131;SDS011;23035;50.032;21.978;2023-06-22T13:49:31;11.95;;;8.13;;
37131;SDS011;23035;50.032;21.978;2023-06-22T13:54:35;9.18;;;8.27;;
37131;SDS011;23035;50.032;21.978;2023-06-22T13:59:40;8.27;;;7.13;;
37131;SDS011;23035;50.032;21.978;2023-06-22T14:04:45;7.57;;;6.70;;
37131;SDS011;23035;50.032;21.978;2023-06-22T14:14:54;7.22;;;6.05;;
37131;SDS011;23035;50.032;21.978;2023-06-22T14:19:59;12.40;;;10.52;;
37131;SDS011;23035;50.032;21.978;2023-06-22T14:25:04;15.10;;;8.82;;
37131;SDS011;23035;50.032;21.978;2023-06-22T14:30:10;12.07;;;8.15;;
37131;SDS011;23035;50.032;21.978;2023-06-22T14:35:14;13.98;;;12.45;;
37131;SDS011;23035;50.032;21.978;2023-06-22T14:40:19;9.05;;;8.15;;
37131;SDS011;23035;50.032;21.978;2023-06-22T14:45:29;9.90;;;8.20;;
37131;SDS011;23035;50.032;21.978;2023-06-22T14:50:33;11.88;;;8.48;;
37131;SDS011;23035;50.032;21.978;2023-06-22T14:55:37;9.27;;;8.30;;
37131;SDS011;23035;50.032;21.978;2023-06-22T15:00:42;9.98;;;8.45;;
37131;SDS011;23035;50.032;21.978;2023-06-22T15:05:46;9.98;;;9.00;;
37131;SDS011;23035;50.032;21.978;2023-06-22T15:10:50;12.30;;;9.40;;
37131;SDS011;23035;50.032;21.978;2023-06-22T15:15:56;11.05;;;9.38;;
37131;SDS011;23035;50.032;21.978;2023-06-22T15:21:00;11.07;;;9.98;;
37131;SDS011;23035;50.032;21.978;2023-06-22T15:26:04;11.63;;;10.43;;
37131;SDS011;23035;50.032;21.978;2023-06-22T15:31:10;13.35;;;10.45;;
37131;SDS011;23035;50.032;21.978;2023-06-22T15:36:14;11.48;;;10.15;;
37131;SDS011;23035;50.032;21.978;2023-06-22T15:41:18;12.27;;;10.95;;
37131;SDS011;23035;50.032;21.978;2023-06-22T15:46:24;15.75;;;11.00;;
37131;SDS011;23035;50.032;21.978;2023-06-22T15:51:28;11.60;;;10.48;;
37131;SDS011;23035;50.032;21.978;2023-06-22T15:56:32;15.35;;;10.75;;
37131;SDS011;23035;50.032;21.978;2023-06-22T16:01:40;14.18;;;11.85;;
37131;SDS011;23035;50.032;21.978;2023-06-22T16:06:45;14.30;;;11.73;;
37131;SDS011;23035;50.032;21.978;2023-06-22T16:11:52;11.73;;;10.40;;
37131;SDS011;23035;50.032;21.978;2023-06-22T16:16:57;13.23;;;11.85;;
37131;SDS011;23035;50.032;21.978;2023-06-22T16:22:04;13.05;;;11.70;;
37131;SDS011;23035;50.032;21.978;2023-06-22T16:27:09;13.50;;;11.05;;
37131;SDS011;23035;50.032;21.978;2023-06-22T16:37:20;18.55;;;12.02;;
37131;SDS011;23035;50.032;21.978;2023-06-22T16:42:48;13.60;;;12.00;;
37131;SDS011;23035;50.032;21.978;2023-06-22T16:47:57;12.68;;;11.32;;
37131;SDS011;23035;50.032;21.978;2023-06-22T16:53:01;11.45;;;10.10;;
37131;SDS011;23035;50.032;21.978;2023-06-22T16:58:05;15.63;;;11.77;;
37131;SDS011;23035;50.032;21.978;2023-06-22T17:03:12;12.05;;;10.63;;
37131;SDS011;23035;50.032;21.978;2023-06-22T17:08:24;12.37;;;11.07;;
37131;SDS011;23035;50.032;21.978;2023-06-22T17:13:34;14.15;;;11.40;;
37131;SDS011;23035;50.032;21.978;2023-06-22T17:23:44;13.88;;;12.10;;
37131;SDS011;23035;50.032;21.978;2023-06-22T17:28:52;16.25;;;12.00;;
37131;SDS011;23035;50.032;21.978;2023-06-22T17:34:07;17.23;;;12.32;;
37131;SDS011;23035;50.032;21.978;2023-06-22T17:39:12;16.80;;;12.10;;
37131;SDS011;23035;50.032;21.978;2023-06-22T17:44:18;17.08;;;12.95;;
37131;SDS011;23035;50.032;21.978;2023-06-22T17:49:36;16.65;;;13.30;;
37131;SDS011;23035;50.032;21.978;2023-06-22T17:54:42;17.35;;;13.95;;
37131;SDS011;23035;50.032;21.978;2023-06-22T18:00:07;18.63;;;13.82;;
37131;SDS011;23035;50.032;21.978;2023-06-22T18:05:33;18.58;;;12.07;;
37131;SDS011;23035;50.032;21.978;2023-06-22T18:17:34;19.70;;;13.25;;
37131;SDS011;23035;50.032;21.978;2023-06-22T18:22:49;18.75;;;13.35;;
37131;SDS011;23035;50.032;21.978;2023-06-22T18:28:32;22.70;;;13.93;;
37131;SDS011;23035;50.032;21.978;2023-06-22T18:33:55;20.88;;;13.35;;
37131;SDS011;23035;50.032;21.978;2023-06-22T18:39:11;17.88;;;14.30;;
37131;SDS011;23035;50.032;21.978;2023-06-22T18:44:18;19.85;;;13.93;;
37131;SDS011;23035;50.032;21.978;2023-06-22T18:49:23;19.15;;;13.88;;
37131;SDS011;23035;50.032;21.978;2023-06-22T18:54:32;20.40;;;15.48;;
37131;SDS011;23035;50.032;21.978;2023-06-22T18:59:41;18.77;;;15.50;;
37131;SDS011;23035;50.032;21.978;2023-06-22T19:04:47;18.67;;;14.70;;
37131;SDS011;23035;50.032;21.978;2023-06-22T19:15:33;19.52;;;15.63;;
37131;SDS011;23035;50.032;21.978;2023-06-22T19:20:39;22.90;;;17.77;;
37131;SDS011;23035;50.032;21.978;2023-06-22T19:25:43;22.45;;;15.98;;
37131;SDS011;23035;50.032;21.978;2023-06-22T19:30:51;20.13;;;16.15;;
37131;SDS011;23035;50.032;21.978;2023-06-22T19:35:58;22.10;;;14.63;;
37131;SDS011;23035;50.032;21.978;2023-06-22T19:41:06;18.15;;;14.25;;
37131;SDS011;23035;50.032;21.978;2023-06-22T19:46:12;21.88;;;15.93;;
37131;SDS011;23035;50.032;21.978;2023-06-22T19:51:16;21.52;;;14.68;;
37131;SDS011;23035;50.032;21.978;2023-06-22T19:56:20;24.42;;;15.85;;
37131;SDS011;23035;50.032;21.978;2023-06-22T20:01:27;24.40;;;15.63;;
37131;SDS011;23035;50.032;21.978;2023-06-22T20:06:32;22.00;;;14.77;;
37131;SDS011;23035;50.032;21.978;2023-06-22T20:11:36;21.63;;;14.45;;
37131;SDS011;23035;50.032;21.978;2023-06-22T20:16:46;19.27;;;13.32;;
37131;SDS011;23035;50.032;21.978;2023-06-22T20:21:56;20.80;;;15.45;;
37131;SDS011;23035;50.032;21.978;2023-06-22T20:27:09;24.23;;;16.00;;
37131;SDS011;23035;50.032;21.978;2023-06-22T20:32:17;26.23;;;16.73;;
37131;SDS011;23035;50.032;21.978;2023-06-22T20:37:21;23.92;;;17.98;;
37131;SDS011;23035;50.032;21.978;2023-06-22T20:42:25;25.80;;;16.73;;
37131;SDS011;23035;50.032;21.978;2023-06-22T20:47:30;26.65;;;17.15;;
37131;SDS011;23035;50.032;21.978;2023-06-22T20:52:34;21.65;;;15.48;;
37131;SDS011;23035;50.032;21.978;2023-06-22T20:57:38;29.58;;;18.15;;
37131;SDS011;23035;50.032;21.978;2023-06-22T21:07:51;29.17;;;18.85;;
37131;SDS011;23035;50.032;21.978;2023-06-22T21:12:57;23.85;;;16.40;;
37131;SDS011;23035;50.032;21.978;2023-06-22T21:18:02;29.33;;;17.77;;
37131;SDS011;23035;50.032;21.978;2023-06-22T21:23:07;24.27;;;17.60;;
37131;SDS011;23035;50.032;21.978;2023-06-22T21:28:12;27.63;;;18.00;;
37131;SDS011;23035;50.032;21.978;2023-06-22T21:33:21;27.42;;;17.73;;
37131;SDS011;23035;50.032;21.978;2023-06-22T21:38:26;27.50;;;18.83;;
37131;SDS011;23035;50.032;21.978;2023-06-22T21:43:30;28.95;;;19.27;;
37131;SDS011;23035;50.032;21.978;2023-06-22T21:48:36;30.70;;;19.52;;
37131;SDS011;23035;50.032;21.978;2023-06-22T21:53:40;26.58;;;18.80;;
37131;SDS011;23035;50.032;21.978;2023-06-22T21:58:44;27.80;;;18.20;;
37131;SDS011;23035;50.032;21.978;2023-06-22T22:03:50;28.08;;;19.02;;
37131;SDS011;23035;50.032;21.978;2023-06-22T22:27:04;27.45;;;18.23;;
37131;SDS011;23035;50.032;21.978;2023-06-22T22:33:14;26.75;;;19.00;;
37131;SDS011;23035;50.032;21.978;2023-06-22T22:53:14;29.00;;;19.95;;
37131;SDS011;23035;50.032;21.978;2023-06-22T23:00:26;24.08;;;18.02;;
37131;SDS011;23035;50.032;21.978;2023-06-22T23:06:01;27.40;;;17.95;;
37131;SDS011;23035;50.032;21.978;2023-06-22T23:11:06;26.13;;;17.73;;
37131;SDS011;23035;50.032;21.978;2023-06-22T23:16:11;27.73;;;18.08;;
37131;SDS011;23035;50.032;21.978;2023-06-22T23:21:15;31.57;;;19.10;;
37131;SDS011;23035;50.032;21.978;2023-06-22T23:26:21;32.70;;;19.40;;
37131;SDS011;23035;50.032;21.978;2023-06-22T23:31:25;25.10;;;18.30;;
37131;SDS011;23035;50.032;21.978;2023-06-22T23:36:30;26.75;;;17.83;;
37131;SDS011;23035;50.032;21.978;2023-06-22T23:41:35;24.42;;;17.13;;
37131;SDS011;23035;50.032;21.978;2023-06-22T23:46:39;23.88;;;18.48;;
37131;SDS011;23035;50.032;21.978;2023-06-22T23:51:44;27.25;;;18.20;;
37131;SDS011;23035;50.032;21.978;2023-06-22T23:56:50;29.10;;;18.03;;
